sensor_id;sensor_type;location;lat;lon;timestamp;pressure;altitude;pressure_sealevel;temperature
68440;BMP180;55421;51.600;5.718;2023-12-28T00:01:47;164013.80;;;8.76
68440;BMP180;55421;51.600;5.718;2023-12-28T00:04:13;164015.00;;;8.80
68440;BMP180;55421;51.600;5.718;2023-12-28T00:06:40;164015.00;;;8.80
68440;BMP180;55421;51.600;5.718;2023-12-28T00:09:08;164007.00;;;8.70
68440;BMP180;55421;51.600;5.718;2023-12-28T00:11:36;163992.20;;;8.70
68440;BMP180;55421;51.600;5.718;2023-12-28T00:14:03;163984.20;;;8.70
68440;BMP180;55421;51.600;5.718;2023-12-28T00:16:31;163978.59;;;8.70
68440;BMP180;55421;51.600;5.718;2023-12-28T00:19:06;163981.80;;;8.70
68440;BMP180;55421;51.600;5.718;2023-12-28T00:21:33;163977.00;;;8.70
68440;BMP180;55421;51.600;5.718;2023-12-28T00:23:59;163977.41;;;8.70
68440;BMP180;55421;51.600;5.718;2023-12-28T00:26:26;163972.59;;;8.70
68440;BMP180;55421;51.600;5.718;2023-12-28T00:28:52;163975.00;;;8.70
68440;BMP180;55421;51.600;5.718;2023-12-28T00:31:19;163965.41;;;8.62
68440;BMP180;55421;51.600;5.718;2023-12-28T00:33:45;163964.20;;;8.60
68440;BMP180;55421;51.600;5.718;2023-12-28T00:36:12;163959.41;;;8.60
68440;BMP180;55421;51.600;5.718;2023-12-28T00:38:38;163958.20;;;8.60
68440;BMP180;55421;51.600;5.718;2023-12-28T00:41:05;163959.41;;;8.60
68440;BMP180;55421;51.600;5.718;2023-12-28T00:43:31;163954.59;;;8.60
68440;BMP180;55421;51.600;5.718;2023-12-28T00:45:58;163945.00;;;8.60
68440;BMP180;55421;51.600;5.718;2023-12-28T00:48:24;163941.00;;;8.60
68440;BMP180;55421;51.600;5.718;2023-12-28T00:50:51;163931.41;;;8.60
68440;BMP180;55421;51.600;5.718;2023-12-28T00:53:18;163928.59;;;8.52
68440;BMP180;55421;51.600;5.718;2023-12-28T00:55:44;163919.41;;;8.50
68440;BMP180;55421;51.600;5.718;2023-12-28T00:58:11;163911.80;;;8.50
68440;BMP180;55421;51.600;5.718;2023-12-28T01:00:37;163902.20;;;8.50
68440;BMP180;55421;51.600;5.718;2023-12-28T01:03:04;163897.00;;;8.50
68440;BMP180;55421;51.600;5.718;2023-12-28T01:05:30;163900.59;;;8.50
68440;BMP180;55421;51.600;5.718;2023-12-28T01:07:56;163896.59;;;8.50
68440;BMP180;55421;51.600;5.718;2023-12-28T01:10:23;163896.20;;;8.50
68440;BMP180;55421;51.600;5.718;2023-12-28T01:12:50;163909.80;;;8.50
68440;BMP180;55421;51.600;5.718;2023-12-28T01:15:16;163918.59;;;8.50
68440;BMP180;55421;51.600;5.718;2023-12-28T01:17:43;163921.80;;;8.50
68440;BMP180;55421;51.600;5.718;2023-12-28T01:20:10;163918.20;;;8.50
68440;BMP180;55421;51.600;5.718;2023-12-28T01:22:37;163925.80;;;8.50
68440;BMP180;55421;51.600;5.718;2023-12-28T01:25:04;163933.80;;;8.60
68440;BMP180;55421;51.600;5.718;2023-12-28T01:27:31;163943.00;;;8.60
68440;BMP180;55421;51.600;5.718;2023-12-28T01:29:57;163966.59;;;8.60
68440;BMP180;55421;51.600;5.718;2023-12-28T01:32:24;163983.80;;;8.70
68440;BMP180;55421;51.600;5.718;2023-12-28T01:34:50;164000.20;;;8.70
68440;BMP180;55421;51.600;5.718;2023-12-28T01:37:17;164011.00;;;8.72
68440;BMP180;55421;51.600;5.718;2023-12-28T01:39:43;164022.20;;;8.80
68440;BMP180;55421;51.600;5.718;2023-12-28T01:42:10;164049.20;;;8.80
68440;BMP180;55421;51.600;5.718;2023-12-28T01:44:36;164064.41;;;8.90
68440;BMP180;55421;51.600;5.718;2023-12-28T01:47:04;164071.20;;;8.90
68440;BMP180;55421;51.600;5.718;2023-12-28T01:49:31;164072.41;;;8.90
68440;BMP180;55421;51.600;5.718;2023-12-28T01:51:59;164068.80;;;8.90
68440;BMP180;55421;51.600;5.718;2023-12-28T01:54:26;164068.80;;;8.90
68440;BMP180;55421;51.600;5.718;2023-12-28T01:56:53;164073.20;;;8.90
68440;BMP180;55421;51.600;5.718;2023-12-28T01:59:20;164078.00;;;8.90
68440;BMP180;55421;51.600;5.718;2023-12-28T02:01:47;164083.59;;;8.90
68440;BMP180;55421;51.600;5.718;2023-12-28T02:04:15;164076.80;;;8.90
68440;BMP180;55421;51.600;5.718;2023-12-28T02:06:42;164074.41;;;8.90
68440;BMP180;55421;51.600;5.718;2023-12-28T02:09:08;164066.41;;;8.90
68440;BMP180;55421;51.600;5.718;2023-12-28T02:11:35;164062.80;;;8.90
68440;BMP180;55421;51.600;5.718;2023-12-28T02:14:01;164072.41;;;8.90
68440;BMP180;55421;51.600;5.718;2023-12-28T02:16:39;164073.59;;;8.90
68440;BMP180;55421;51.600;5.718;2023-12-28T02:19:25;164070.00;;;8.90
68440;BMP180;55421;51.600;5.718;2023-12-28T02:21:59;164060.80;;;8.90
68440;BMP180;55421;51.600;5.718;2023-12-28T02:24:27;164055.20;;;8.86
68440;BMP180;55421;51.600;5.718;2023-12-28T02:26:54;164049.20;;;8.80
68440;BMP180;55421;51.600;5.718;2023-12-28T02:29:20;164040.80;;;8.80
68440;BMP180;55421;51.600;5.718;2023-12-28T02:32:00;164032.41;;;8.80
68440;BMP180;55421;51.600;5.718;2023-12-28T02:34:40;164034.80;;;8.80
68440;BMP180;55421;51.600;5.718;2023-12-28T02:37:12;164031.20;;;8.80
68440;BMP180;55421;51.600;5.718;2023-12-28T02:39:45;164025.20;;;8.80
68440;BMP180;55421;51.600;5.718;2023-12-28T02:42:13;164019.00;;;8.80
68440;BMP180;55421;51.600;5.718;2023-12-28T02:44:39;164017.00;;;8.76
68440;BMP180;55421;51.600;5.718;2023-12-28T02:47:06;164007.80;;;8.70
68440;BMP180;55421;51.600;5.718;2023-12-28T02:49:32;164009.41;;;8.70
68440;BMP180;55421;51.600;5.718;2023-12-28T02:51:59;164009.41;;;8.70
68440;BMP180;55421;51.600;5.718;2023-12-28T02:54:25;163995.00;;;8.70
68440;BMP180;55421;51.600;5.718;2023-12-28T02:56:52;163991.41;;;8.70
68440;BMP180;55421;51.600;5.718;2023-12-28T02:59:18;163995.80;;;8.70
68440;BMP180;55421;51.600;5.718;2023-12-28T03:01:45;163991.00;;;8.70
68440;BMP180;55421;51.600;5.718;2023-12-28T03:04:11;163987.00;;;8.70
68440;BMP180;55421;51.600;5.718;2023-12-28T03:06:38;163985.00;;;8.70
68440;BMP180;55421;51.600;5.718;2023-12-28T03:09:06;163983.00;;;8.70
68440;BMP180;55421;51.600;5.718;2023-12-28T03:11:32;163979.80;;;8.70
68440;BMP180;55421;51.600;5.718;2023-12-28T03:13:59;163983.41;;;8.70
68440;BMP180;55421;51.600;5.718;2023-12-28T03:16:25;163987.41;;;8.70
68440;BMP180;55421;51.600;5.718;2023-12-28T03:18:52;163985.41;;;8.70
68440;BMP180;55421;51.600;5.718;2023-12-28T03:21:19;163979.80;;;8.70
68440;BMP180;55421;51.600;5.718;2023-12-28T03:23:45;163993.80;;;8.70
68440;BMP180;55421;51.600;5.718;2023-12-28T03:26:12;163989.41;;;8.70
68440;BMP180;55421;51.600;5.718;2023-12-28T03:28:40;163981.80;;;8.70
68440;BMP180;55421;51.600;5.718;2023-12-28T03:31:06;163970.20;;;8.66
68440;BMP180;55421;51.600;5.718;2023-12-28T03:33:33;163963.00;;;8.60
68440;BMP180;55421;51.600;5.718;2023-12-28T03:35:59;163957.00;;;8.60
68440;BMP180;55421;51.600;5.718;2023-12-28T03:38:27;163944.20;;;8.60
68440;BMP180;55421;51.600;5.718;2023-12-28T03:40:54;163947.41;;;8.60
68440;BMP180;55421;51.600;5.718;2023-12-28T03:43:21;163959.41;;;8.60
68440;BMP180;55421;51.600;5.718;2023-12-28T03:45:47;163967.80;;;8.68
68440;BMP180;55421;51.600;5.718;2023-12-28T03:48:14;163984.59;;;8.70
68440;BMP180;55421;51.600;5.718;2023-12-28T03:50:40;163986.20;;;8.70
68440;BMP180;55421;51.600;5.718;2023-12-28T03:53:07;163991.41;;;8.70
68440;BMP180;55421;51.600;5.718;2023-12-28T03:55:33;163994.59;;;8.70
68440;BMP180;55421;51.600;5.718;2023-12-28T03:58:00;163984.20;;;8.70
68440;BMP180;55421;51.600;5.718;2023-12-28T04:00:26;163978.20;;;8.70
68440;BMP180;55421;51.600;5.718;2023-12-28T04:02:53;163971.41;;;8.68
68440;BMP180;55421;51.600;5.718;2023-12-28T04:05:21;163964.20;;;8.60
68440;BMP180;55421;51.600;5.718;2023-12-28T04:07:47;163958.20;;;8.60
68440;BMP180;55421;51.600;5.718;2023-12-28T04:10:28;163957.00;;;8.60
68440;BMP180;55421;51.600;5.718;2023-12-28T04:12:54;163955.80;;;8.60
68440;BMP180;55421;51.600;5.718;2023-12-28T04:15:23;163959.41;;;8.60
68440;BMP180;55421;51.600;5.718;2023-12-28T04:17:50;163967.80;;;8.64
68440;BMP180;55421;51.600;5.718;2023-12-28T04:20:16;163961.80;;;8.62
68440;BMP180;55421;51.600;5.718;2023-12-28T04:22:43;163965.41;;;8.64
68440;BMP180;55421;51.600;5.718;2023-12-28T04:25:10;163979.80;;;8.70
68440;BMP180;55421;51.600;5.718;2023-12-28T04:27:41;163979.41;;;8.70
68440;BMP180;55421;51.600;5.718;2023-12-28T04:30:12;163979.41;;;8.70
68440;BMP180;55421;51.600;5.718;2023-12-28T04:32:38;163987.80;;;8.70
68440;BMP180;55421;51.600;5.718;2023-12-28T04:35:06;163993.41;;;8.70
68440;BMP180;55421;51.600;5.718;2023-12-28T04:37:33;163996.20;;;8.70
68440;BMP180;55421;51.600;5.718;2023-12-28T04:40:01;163999.00;;;8.70
68440;BMP180;55421;51.600;5.718;2023-12-28T04:42:29;164005.00;;;8.70
68440;BMP180;55421;51.600;5.718;2023-12-28T04:44:55;163997.00;;;8.70
68440;BMP180;55421;51.600;5.718;2023-12-28T04:47:22;163993.41;;;8.70
68440;BMP180;55421;51.600;5.718;2023-12-28T04:49:48;163987.41;;;8.70
68440;BMP180;55421;51.600;5.718;2023-12-28T04:52:15;163986.20;;;8.70
68440;BMP180;55421;51.600;5.718;2023-12-28T04:54:41;164007.00;;;8.70
68440;BMP180;55421;51.600;5.718;2023-12-28T04:57:08;164018.00;;;8.80
68440;BMP180;55421;51.600;5.718;2023-12-28T04:59:39;164031.20;;;8.80
68440;BMP180;55421;51.600;5.718;2023-12-28T05:02:06;164049.20;;;8.80
68440;BMP180;55421;51.600;5.718;2023-12-28T05:04:37;164059.59;;;8.86
68440;BMP180;55421;51.600;5.718;2023-12-28T05:07:07;164076.00;;;8.90
68440;BMP180;55421;51.600;5.718;2023-12-28T05:09:33;164102.41;;;9.00
68440;BMP180;55421;51.600;5.718;2023-12-28T05:12:00;164126.59;;;9.00
68440;BMP180;55421;51.600;5.718;2023-12-28T05:14:27;164139.80;;;9.06
68440;BMP180;55421;51.600;5.718;2023-12-28T05:16:53;164151.80;;;9.10
68440;BMP180;55421;51.600;5.718;2023-12-28T05:19:20;164165.00;;;9.10
68440;BMP180;55421;51.600;5.718;2023-12-28T05:21:46;164178.59;;;9.12
68440;BMP180;55421;51.600;5.718;2023-12-28T05:24:13;164199.41;;;9.20
68440;BMP180;55421;51.600;5.718;2023-12-28T05:26:40;164216.20;;;9.20
68440;BMP180;55421;51.600;5.718;2023-12-28T05:29:06;164227.80;;;9.22
68440;BMP180;55421;51.600;5.718;2023-12-28T05:31:33;164233.41;;;9.24
68440;BMP180;55421;51.600;5.718;2023-12-28T05:33:59;164239.41;;;9.30
68440;BMP180;55421;51.600;5.718;2023-12-28T05:36:26;164238.20;;;9.30
68440;BMP180;55421;51.600;5.718;2023-12-28T05:38:52;164227.80;;;9.24
68440;BMP180;55421;51.600;5.718;2023-12-28T05:41:19;164215.00;;;9.20
68440;BMP180;55421;51.600;5.718;2023-12-28T05:43:45;164204.59;;;9.20
68440;BMP180;55421;51.600;5.718;2023-12-28T05:46:12;164194.59;;;9.20
68440;BMP180;55421;51.600;5.718;2023-12-28T05:48:38;164179.80;;;9.16
68440;BMP180;55421;51.600;5.718;2023-12-28T05:51:05;164168.59;;;9.10
68440;BMP180;55421;51.600;5.718;2023-12-28T05:53:31;164157.80;;;9.10
68440;BMP180;55421;51.600;5.718;2023-12-28T05:55:58;164153.00;;;9.10
68440;BMP180;55421;51.600;5.718;2023-12-28T05:58:29;164142.59;;;9.06
68440;BMP180;55421;51.600;5.718;2023-12-28T06:00:56;164149.41;;;9.10
68440;BMP180;55421;51.600;5.718;2023-12-28T06:03:22;164164.59;;;9.10
68440;BMP180;55421;51.600;5.718;2023-12-28T06:05:54;164175.00;;;9.10
68440;BMP180;55421;51.600;5.718;2023-12-28T06:08:21;164187.00;;;9.18
68440;BMP180;55421;51.600;5.718;2023-12-28T06:10:48;164188.20;;;9.20
68440;BMP180;55421;51.600;5.718;2023-12-28T06:13:15;164216.20;;;9.20
68440;BMP180;55421;51.600;5.718;2023-12-28T06:15:41;164240.59;;;9.30
68440;BMP180;55421;51.600;5.718;2023-12-28T06:18:08;164261.00;;;9.30
68440;BMP180;55421;51.600;5.718;2023-12-28T06:20:34;164269.00;;;9.34
68440;BMP180;55421;51.600;5.718;2023-12-28T06:23:02;164272.41;;;9.40
68440;BMP180;55421;51.600;5.718;2023-12-28T06:25:29;164285.59;;;9.40
68440;BMP180;55421;51.600;5.718;2023-12-28T06:27:55;164290.41;;;9.40
68440;BMP180;55421;51.600;5.718;2023-12-28T06:30:22;164297.20;;;9.40
68440;BMP180;55421;51.600;5.718;2023-12-28T06:32:49;164298.41;;;9.40
68440;BMP180;55421;51.600;5.718;2023-12-28T06:35:15;164301.20;;;9.40
68440;BMP180;55421;51.600;5.718;2023-12-28T06:37:42;164294.80;;;9.40
68440;BMP180;55421;51.600;5.718;2023-12-28T06:40:09;164290.80;;;9.40
68440;BMP180;55421;51.600;5.718;2023-12-28T06:42:36;164287.59;;;9.40
68440;BMP180;55421;51.600;5.718;2023-12-28T06:45:03;164287.59;;;9.40
68440;BMP180;55421;51.600;5.718;2023-12-28T06:47:30;164298.41;;;9.40
68440;BMP180;55421;51.600;5.718;2023-12-28T06:49:56;164300.41;;;9.40
68440;BMP180;55421;51.600;5.718;2023-12-28T06:52:23;164298.00;;;9.40
68440;BMP180;55421;51.600;5.718;2023-12-28T06:54:51;164307.59;;;9.40
68440;BMP180;55421;51.600;5.718;2023-12-28T06:57:19;164308.80;;;9.40
68440;BMP180;55421;51.600;5.718;2023-12-28T06:59:46;164307.59;;;9.40
68440;BMP180;55421;51.600;5.718;2023-12-28T07:02:12;164305.59;;;9.40
68440;BMP180;55421;51.600;5.718;2023-12-28T07:04:38;164294.41;;;9.40
68440;BMP180;55421;51.600;5.718;2023-12-28T07:07:05;164283.59;;;9.40
68440;BMP180;55421;51.600;5.718;2023-12-28T07:09:31;164275.59;;;9.40
68440;BMP180;55421;51.600;5.718;2023-12-28T07:11:58;164269.00;;;9.30
68440;BMP180;55421;51.600;5.718;2023-12-28T07:14:25;164260.00;;;9.30
68440;BMP180;55421;51.600;5.718;2023-12-28T07:16:52;164255.80;;;9.30
68440;BMP180;55421;51.600;5.718;2023-12-28T07:19:18;164247.80;;;9.30
68440;BMP180;55421;51.600;5.718;2023-12-28T07:21:45;164243.00;;;9.30
68440;BMP180;55421;51.600;5.718;2023-12-28T07:24:11;164238.20;;;9.30
68440;BMP180;55421;51.600;5.718;2023-12-28T07:26:38;164252.59;;;9.30
68440;BMP180;55421;51.600;5.718;2023-12-28T07:29:04;164257.00;;;9.30
68440;BMP180;55421;51.600;5.718;2023-12-28T07:31:32;164257.00;;;9.30
68440;BMP180;55421;51.600;5.718;2023-12-28T07:33:58;164260.00;;;9.30
68440;BMP180;55421;51.600;5.718;2023-12-28T07:36:25;164266.00;;;9.30
68440;BMP180;55421;51.600;5.718;2023-12-28T07:38:51;164262.00;;;9.30
68440;BMP180;55421;51.600;5.718;2023-12-28T07:41:18;164255.00;;;9.30
68440;BMP180;55421;51.600;5.718;2023-12-28T07:43:44;164257.00;;;9.30
68440;BMP180;55421;51.600;5.718;2023-12-28T07:46:11;164254.59;;;9.30
68440;BMP180;55421;51.600;5.718;2023-12-28T07:48:37;164251.41;;;9.30
68440;BMP180;55421;51.600;5.718;2023-12-28T07:51:05;164239.41;;;9.30
68440;BMP180;55421;51.600;5.718;2023-12-28T07:53:33;164244.20;;;9.30
68440;BMP180;55421;51.600;5.718;2023-12-28T07:55:59;164243.00;;;9.30
68440;BMP180;55421;51.600;5.718;2023-12-28T07:58:26;164241.80;;;9.30
68440;BMP180;55421;51.600;5.718;2023-12-28T08:00:52;164231.41;;;9.30
68440;BMP180;55421;51.600;5.718;2023-12-28T08:03:19;164240.59;;;9.30
68440;BMP180;55421;51.600;5.718;2023-12-28T08:05:46;164252.59;;;9.30
68440;BMP180;55421;51.600;5.718;2023-12-28T08:08:13;164252.59;;;9.30
68440;BMP180;55421;51.600;5.718;2023-12-28T08:10:39;164257.00;;;9.30
68440;BMP180;55421;51.600;5.718;2023-12-28T08:13:05;164266.00;;;9.30
68440;BMP180;55421;51.600;5.718;2023-12-28T08:15:32;164274.41;;;9.40
68440;BMP180;55421;51.600;5.718;2023-12-28T08:17:59;164284.00;;;9.40
68440;BMP180;55421;51.600;5.718;2023-12-28T08:20:26;164287.59;;;9.40
68440;BMP180;55421;51.600;5.718;2023-12-28T08:22:53;164303.20;;;9.40
68440;BMP180;55421;51.600;5.718;2023-12-28T08:25:19;164313.59;;;9.42
68440;BMP180;55421;51.600;5.718;2023-12-28T08:27:46;164319.59;;;9.50
68440;BMP180;55421;51.600;5.718;2023-12-28T08:30:13;164322.00;;;9.50
68440;BMP180;55421;51.600;5.718;2023-12-28T08:32:40;164327.59;;;9.50
68440;BMP180;55421;51.600;5.718;2023-12-28T08:35:07;164334.41;;;9.50
68440;BMP180;55421;51.600;5.718;2023-12-28T08:37:33;164336.80;;;9.50
68440;BMP180;55421;51.600;5.718;2023-12-28T08:40:00;164346.41;;;9.50
68440;BMP180;55421;51.600;5.718;2023-12-28T08:42:26;164356.00;;;9.52
68440;BMP180;55421;51.600;5.718;2023-12-28T08:44:53;164364.20;;;9.60
68440;BMP180;55421;51.600;5.718;2023-12-28T08:47:20;164374.59;;;9.60
68440;BMP180;55421;51.600;5.718;2023-12-28T08:49:46;164375.80;;;9.60
68440;BMP180;55421;51.600;5.718;2023-12-28T08:52:13;164367.80;;;9.60
68440;BMP180;55421;51.600;5.718;2023-12-28T08:54:40;164369.80;;;9.60
68440;BMP180;55421;51.600;5.718;2023-12-28T08:57:07;164380.20;;;9.60
68440;BMP180;55421;51.600;5.718;2023-12-28T08:59:37;164390.59;;;9.60
68440;BMP180;55421;51.600;5.718;2023-12-28T09:02:04;164400.20;;;9.70
68440;BMP180;55421;51.600;5.718;2023-12-28T09:04:30;164410.59;;;9.70
68440;BMP180;55421;51.600;5.718;2023-12-28T09:06:58;164422.20;;;9.70
68440;BMP180;55421;51.600;5.718;2023-12-28T09:09:24;164430.59;;;9.70
68440;BMP180;55421;51.600;5.718;2023-12-28T09:11:51;164445.00;;;9.78
68440;BMP180;55421;51.600;5.718;2023-12-28T09:14:17;164445.80;;;9.78
68440;BMP180;55421;51.600;5.718;2023-12-28T09:16:47;164445.00;;;9.76
68440;BMP180;55421;51.600;5.718;2023-12-28T09:19:13;164442.59;;;9.72
68440;BMP180;55421;51.600;5.718;2023-12-28T09:21:40;164439.00;;;9.70
68440;BMP180;55421;51.600;5.718;2023-12-28T09:24:07;164428.20;;;9.70
68440;BMP180;55421;51.600;5.718;2023-12-28T09:26:34;164427.00;;;9.70
68440;BMP180;55421;51.600;5.718;2023-12-28T09:29:00;164424.59;;;9.70
68440;BMP180;55421;51.600;5.718;2023-12-28T09:31:27;164428.20;;;9.70
68440;BMP180;55421;51.600;5.718;2023-12-28T09:33:53;164433.00;;;9.70
68440;BMP180;55421;51.600;5.718;2023-12-28T09:36:20;164447.00;;;9.80
68440;BMP180;55421;51.600;5.718;2023-12-28T09:38:46;164452.59;;;9.80
68440;BMP180;55421;51.600;5.718;2023-12-28T09:41:15;164455.00;;;9.80
68440;BMP180;55421;51.600;5.718;2023-12-28T09:44:00;164465.80;;;9.80
68440;BMP180;55421;51.600;5.718;2023-12-28T09:46:29;164469.00;;;9.80
68440;BMP180;55421;51.600;5.718;2023-12-28T09:48:56;164469.00;;;9.80
68440;BMP180;55421;51.600;5.718;2023-12-28T09:51:22;164468.20;;;9.80
68440;BMP180;55421;51.600;5.718;2023-12-28T09:53:49;164481.80;;;9.86
68440;BMP180;55421;51.600;5.718;2023-12-28T09:56:16;164493.41;;;9.90
68440;BMP180;55421;51.600;5.718;2023-12-28T09:58:46;164499.00;;;9.90
68440;BMP180;55421;51.600;5.718;2023-12-28T10:01:14;164503.59;;;9.90
68440;BMP180;55421;51.600;5.718;2023-12-28T10:03:41;164506.80;;;9.90
68440;BMP180;55421;51.600;5.718;2023-12-28T10:06:07;164517.59;;;9.90
68440;BMP180;55421;51.600;5.718;2023-12-28T10:08:34;164515.00;;;9.90
68440;BMP180;55421;51.600;5.718;2023-12-28T10:11:02;164523.20;;;9.90
68440;BMP180;55421;51.600;5.718;2023-12-28T10:13:33;164523.20;;;9.90
68440;BMP180;55421;51.600;5.718;2023-12-28T10:16:01;164530.00;;;9.98
68440;BMP180;55421;51.600;5.718;2023-12-28T10:18:29;164532.00;;;10.00
68440;BMP180;55421;51.600;5.718;2023-12-28T10:20:56;164530.80;;;9.96
68440;BMP180;55421;51.600;5.718;2023-12-28T10:23:25;164534.41;;;9.98
68440;BMP180;55421;51.600;5.718;2023-12-28T10:25:56;164530.00;;;9.94
68440;BMP180;55421;51.600;5.718;2023-12-28T10:28:24;164527.59;;;9.94
68440;BMP180;55421;51.600;5.718;2023-12-28T10:30:55;164523.20;;;9.90
68440;BMP180;55421;51.600;5.718;2023-12-28T10:33:22;164519.20;;;9.90
68440;BMP180;55421;51.600;5.718;2023-12-28T10:35:54;164513.00;;;9.90
68440;BMP180;55421;51.600;5.718;2023-12-28T10:38:26;164516.00;;;9.90
68440;BMP180;55421;51.600;5.718;2023-12-28T10:40:55;164520.00;;;9.90
68440;BMP180;55421;51.600;5.718;2023-12-28T10:43:23;164522.00;;;9.90
68440;BMP180;55421;51.600;5.718;2023-12-28T10:45:51;164524.41;;;9.92
68440;BMP180;55421;51.600;5.718;2023-12-28T10:48:29;164530.41;;;9.98
68440;BMP180;55421;51.600;5.718;2023-12-28T10:51:01;164540.41;;;10.00
68440;BMP180;55421;51.600;5.718;2023-12-28T10:57:03;164560.41;;;10.00
68440;BMP180;55421;51.600;5.718;2023-12-28T10:59:41;164564.80;;;10.00
68440;BMP180;55421;51.600;5.718;2023-12-28T11:02:16;164568.41;;;10.00
68440;BMP180;55421;51.600;5.718;2023-12-28T11:04:50;164578.80;;;10.10
68440;BMP180;55421;51.600;5.718;2023-12-28T11:07:20;164593.59;;;10.10
68440;BMP180;55421;51.600;5.718;2023-12-28T11:09:47;164606.80;;;10.10
68440;BMP180;55421;51.600;5.718;2023-12-28T11:12:16;164628.80;;;10.20
68440;BMP180;55421;51.600;5.718;2023-12-28T11:14:45;164651.00;;;10.22
68440;BMP180;55421;51.600;5.718;2023-12-28T11:17:14;164668.20;;;10.30
68440;BMP180;55421;51.600;5.718;2023-12-28T11:19:42;164687.41;;;10.30
68440;BMP180;55421;51.600;5.718;2023-12-28T11:22:10;164699.00;;;10.34
68440;BMP180;55421;51.600;5.718;2023-12-28T11:24:37;164711.00;;;10.40
68440;BMP180;55421;51.600;5.718;2023-12-28T11:27:04;164721.41;;;10.40
68440;BMP180;55421;51.600;5.718;2023-12-28T11:29:32;164728.59;;;10.40
68440;BMP180;55421;51.600;5.718;2023-12-28T11:31:59;164738.20;;;10.40
68440;BMP180;55421;51.600;5.718;2023-12-28T11:34:33;164745.80;;;10.44
68440;BMP180;55421;51.600;5.718;2023-12-28T11:37:07;164747.00;;;10.48
68440;BMP180;55421;51.600;5.718;2023-12-28T11:39:37;164749.41;;;10.50
68440;BMP180;55421;51.600;5.718;2023-12-28T11:42:07;164750.59;;;10.50
68440;BMP180;55421;51.600;5.718;2023-12-28T11:44:43;164751.80;;;10.50
68440;BMP180;55421;51.600;5.718;2023-12-28T11:47:23;164754.20;;;10.50
68440;BMP180;55421;51.600;5.718;2023-12-28T11:49:50;164755.41;;;10.50
68440;BMP180;55421;51.600;5.718;2023-12-28T11:52:32;164759.80;;;10.50
68440;BMP180;55421;51.600;5.718;2023-12-28T11:54:59;164764.20;;;10.50
68440;BMP180;55421;51.600;5.718;2023-12-28T11:57:27;164757.59;;;10.50
68440;BMP180;55421;51.600;5.718;2023-12-28T12:00:01;164758.80;;;10.50
68440;BMP180;55421;51.600;5.718;2023-12-28T12:02:28;164698.00;;;10.50
68440;BMP180;55421;51.600;5.718;2023-12-28T12:04:55;164748.20;;;10.50
68440;BMP180;55421;51.600;5.718;2023-12-28T12:07:24;164696.41;;;10.40
68440;BMP180;55421;51.600;5.718;2023-12-28T12:09:56;164686.00;;;10.40
68440;BMP180;55421;51.600;5.718;2023-12-28T12:12:24;164638.00;;;10.40
68440;BMP180;55421;51.600;5.718;2023-12-28T12:14:51;164664.59;;;10.40
68440;BMP180;55421;51.600;5.718;2023-12-28T12:17:18;164680.00;;;10.40
68440;BMP180;55421;51.600;5.718;2023-12-28T12:19:46;164687.20;;;10.40
68440;BMP180;55421;51.600;5.718;2023-12-28T12:22:17;164636.00;;;10.40
68440;BMP180;55421;51.600;5.718;2023-12-28T12:24:46;164672.00;;;10.40
68440;BMP180;55421;51.600;5.718;2023-12-28T12:27:14;164696.20;;;10.40
68440;BMP180;55421;51.600;5.718;2023-12-28T12:29:41;164622.80;;;10.40
68440;BMP180;55421;51.600;5.718;2023-12-28T12:32:08;164612.41;;;10.40
68440;BMP180;55421;51.600;5.718;2023-12-28T12:34:35;164570.41;;;10.40
68440;BMP180;55421;51.600;5.718;2023-12-28T12:37:02;164629.20;;;10.40
68440;BMP180;55421;51.600;5.718;2023-12-28T12:39:29;164614.59;;;10.40
68440;BMP180;55421;51.600;5.718;2023-12-28T12:41:56;164689.59;;;10.40
68440;BMP180;55421;51.600;5.718;2023-12-28T12:44:23;164598.59;;;10.40
68440;BMP180;55421;51.600;5.718;2023-12-28T12:46:58;164605.20;;;10.40
68440;BMP180;55421;51.600;5.718;2023-12-28T12:49:26;164709.80;;;10.40
68440;BMP180;55421;51.600;5.718;2023-12-28T12:51:53;164712.59;;;10.40
68440;BMP180;55421;51.600;5.718;2023-12-28T12:54:20;164702.20;;;10.40
68440;BMP180;55421;51.600;5.718;2023-12-28T12:56:49;164707.00;;;10.40
68440;BMP180;55421;51.600;5.718;2023-12-28T12:59:16;164707.00;;;10.40
68440;BMP180;55421;51.600;5.718;2023-12-28T13:01:44;164666.80;;;10.40
68440;BMP180;55421;51.600;5.718;2023-12-28T13:04:11;164704.20;;;10.40
68440;BMP180;55421;51.600;5.718;2023-12-28T13:06:38;164707.00;;;10.40
68440;BMP180;55421;51.600;5.718;2023-12-28T13:09:05;164701.59;;;10.40
68440;BMP180;55421;51.600;5.718;2023-12-28T13:11:36;164708.59;;;10.40
68440;BMP180;55421;51.600;5.718;2023-12-28T13:14:04;164681.20;;;10.40
68440;BMP180;55421;51.600;5.718;2023-12-28T13:16:30;164692.80;;;10.40
68440;BMP180;55421;51.600;5.718;2023-12-28T13:18:57;164703.80;;;10.40
68440;BMP180;55421;51.600;5.718;2023-12-28T13:21:24;164725.00;;;10.40
68440;BMP180;55421;51.600;5.718;2023-12-28T13:23:50;164697.20;;;10.40
68440;BMP180;55421;51.600;5.718;2023-12-28T13:26:17;164725.00;;;10.40
68440;BMP180;55421;51.600;5.718;2023-12-28T13:28:43;164732.20;;;10.40
68440;BMP180;55421;51.600;5.718;2023-12-28T13:31:10;164731.00;;;10.40
68440;BMP180;55421;51.600;5.718;2023-12-28T13:33:36;164726.20;;;10.40
68440;BMP180;55421;51.600;5.718;2023-12-28T13:36:04;164734.20;;;10.40
68440;BMP180;55421;51.600;5.718;2023-12-28T13:38:30;164728.59;;;10.40
68440;BMP180;55421;51.600;5.718;2023-12-28T13:40:57;164741.00;;;10.42
68440;BMP180;55421;51.600;5.718;2023-12-28T13:43:23;164741.41;;;10.44
68440;BMP180;55421;51.600;5.718;2023-12-28T13:45:50;164745.00;;;10.44
68440;BMP180;55421;51.600;5.718;2023-12-28T13:48:17;164745.41;;;10.50
68440;BMP180;55421;51.600;5.718;2023-12-28T13:50:43;164753.00;;;10.50
68440;BMP180;55421;51.600;5.718;2023-12-28T13:53:10;164737.80;;;10.50
68440;BMP180;55421;51.600;5.718;2023-12-28T13:55:36;164760.00;;;10.50
68440;BMP180;55421;51.600;5.718;2023-12-28T13:58:03;164762.00;;;10.50
68440;BMP180;55421;51.600;5.718;2023-12-28T14:00:31;164757.00;;;10.50
68440;BMP180;55421;51.600;5.718;2023-12-28T14:02:57;164723.41;;;10.50
68440;BMP180;55421;51.600;5.718;2023-12-28T14:05:25;164703.59;;;10.50
68440;BMP180;55421;51.600;5.718;2023-12-28T14:07:52;164700.00;;;10.50
68440;BMP180;55421;51.600;5.718;2023-12-28T14:10:18;164696.80;;;10.40
68440;BMP180;55421;51.600;5.718;2023-12-28T14:12:45;164681.20;;;10.40